createdAt,value
2023-04-25T00:02:50.000Z,11.34
2023-04-25T00:07:52.811Z,11.40
2023-04-25T00:12:54.999Z,11.31
2023-04-25T00:17:57.861Z,11.48
2023-04-25T00:23:00.100Z,11.53
2023-04-25T00:28:02.322Z,11.52
2023-04-25T00:33:04.448Z,11.51
2023-04-25T00:38:06.611Z,11.46
2023-04-25T00:43:08.779Z,11.50
2023-04-25T00:48:11.116Z,11.49
2023-04-25T00:53:13.439Z,11.53
2023-04-25T00:58:15.782Z,11.45
2023-04-25T01:03:20.831Z,11.57
2023-04-25T01:08:28.500Z,11.50
2023-04-25T01:13:30.811Z,11.40
2023-04-25T01:18:33.145Z,11.47
2023-04-25T01:23:35.437Z,11.40
2023-04-25T01:28:39.009Z,11.38
2023-04-25T01:33:41.427Z,11.42
2023-04-25T01:38:45.062Z,11.29
2023-04-25T01:43:47.452Z,11.33
2023-04-25T01:48:49.710Z,11.16
2023-04-25T01:53:52.420Z,11.27
2023-04-25T01:58:55.039Z,11.17
2023-04-25T02:03:57.590Z,11.18
2023-04-25T02:09:00.422Z,11.18
2023-04-25T02:14:02.582Z,11.34
2023-04-25T02:19:04.740Z,11.29
2023-04-25T02:24:07.422Z,11.15
2023-04-25T02:29:10.434Z,11.32
2023-04-25T02:34:12.646Z,11.32
2023-04-25T02:39:14.876Z,11.41
2023-04-25T02:44:17.044Z,11.49
2023-04-25T02:49:19.320Z,11.53
2023-04-25T02:54:21.528Z,11.57
2023-04-25T02:59:23.755Z,11.56
2023-04-25T03:04:26.100Z,11.59
2023-04-25T03:09:28.269Z,11.47
2023-04-25T03:14:30.757Z,11.43
2023-04-25T03:19:32.877Z,11.35
2023-04-25T03:24:35.011Z,11.27
2023-04-25T03:29:37.217Z,11.18
2023-04-25T03:34:39.433Z,11.10
2023-04-25T03:39:41.636Z,11.05
2023-04-25T03:44:43.785Z,11.17
2023-04-25T03:49:45.978Z,11.03
2023-04-25T03:54:48.173Z,10.93
2023-04-25T03:59:50.371Z,10.85
2023-04-25T04:04:52.843Z,10.71
2023-04-25T04:09:55.314Z,10.78
2023-04-25T04:14:57.471Z,10.64
2023-04-25T04:19:59.615Z,10.54
2023-04-25T04:25:01.751Z,10.50
2023-04-25T04:30:04.579Z,10.46
2023-04-25T04:35:07.571Z,10.64
2023-04-25T04:40:10.559Z,10.44
2023-04-25T04:45:13.339Z,10.45
2023-04-25T04:50:15.998Z,10.29
2023-04-25T04:55:18.265Z,10.38
2023-04-25T05:00:21.933Z,10.41
2023-04-25T05:05:24.118Z,10.36
2023-04-25T05:10:27.362Z,10.37
2023-04-25T05:15:29.517Z,10.30
2023-04-25T05:20:31.684Z,10.05
2023-04-25T05:25:33.956Z,9.77
2023-04-25T05:30:36.146Z,9.75
2023-04-25T05:35:38.390Z,9.61
2023-04-25T05:40:40.588Z,9.59
2023-04-25T05:45:42.796Z,9.39
2023-04-25T05:50:45.077Z,9.33
2023-04-25T05:55:48.040Z,9.16
2023-04-25T06:00:50.296Z,8.95
2023-04-25T06:05:52.751Z,8.79
2023-04-25T06:10:55.149Z,8.69
2023-04-25T06:15:57.460Z,8.98
2023-04-25T06:20:59.631Z,9.08
2023-04-25T06:26:01.813Z,9.05
2023-04-25T06:31:04.310Z,9.34
2023-04-25T06:36:06.735Z,9.52
2023-04-25T06:41:08.972Z,9.61
2023-04-25T06:46:11.384Z,10.24
2023-04-25T06:51:14.302Z,10.60
2023-04-25T06:56:17.159Z,10.81
2023-04-25T07:01:19.543Z,11.18
2023-04-25T07:06:21.759Z,11.02
2023-04-25T07:11:23.928Z,11.23
2023-04-25T07:16:26.064Z,11.31
2023-04-25T07:21:28.240Z,11.45
2023-04-25T07:26:30.372Z,12.21
2023-04-25T07:31:32.668Z,12.52
2023-04-25T07:36:35.105Z,12.42
2023-04-25T07:41:37.279Z,12.56
2023-04-25T07:46:39.559Z,13.00
2023-04-25T07:51:42.237Z,12.92
2023-04-25T07:56:52.158Z,13.06
2023-04-25T08:01:55.872Z,13.46
2023-04-25T08:06:58.118Z,13.98
2023-04-25T08:12:01.716Z,15.02
2023-04-25T08:17:04.702Z,14.91
2023-04-25T08:22:06.800Z,15.22
2023-04-25T08:27:09.060Z,14.85
2023-04-25T08:32:11.283Z,14.83
2023-04-25T08:37:13.511Z,14.49
2023-04-25T08:42:16.777Z,14.03
2023-04-25T08:47:23.475Z,14.05
2023-04-25T08:52:29.386Z,13.94
2023-04-25T08:57:32.656Z,13.65
2023-04-25T09:02:35.416Z,13.86
2023-04-25T09:07:37.839Z,13.67
2023-04-25T09:12:40.518Z,13.98
2023-04-25T09:17:45.448Z,14.22
2023-04-25T09:22:47.652Z,15.81
2023-04-25T09:27:54.457Z,16.15
2023-04-25T09:33:10.699Z,15.72
2023-04-25T09:38:14.975Z,18.29
2023-04-25T09:43:22.152Z,18.89
2023-04-25T09:48:26.238Z,19.85
2023-04-25T09:53:28.575Z,22.31
2023-04-25T09:58:32.851Z,18.45
2023-04-25T10:03:38.086Z,18.31
2023-04-25T10:08:41.924Z,18.14
2023-04-25T10:13:44.809Z,17.90
2023-04-25T10:18:46.925Z,17.22
2023-04-25T10:23:50.849Z,17.28
2023-04-25T10:28:57.952Z,16.47
2023-04-25T10:34:03.259Z,15.54
2023-04-25T10:39:15.588Z,15.46
2023-04-25T10:44:17.849Z,15.99
2023-04-25T10:49:42.196Z,15.90
2023-04-25T10:54:57.751Z,17.55
2023-04-25T11:00:12.967Z,19.07
2023-04-25T11:05:36.446Z,19.36
2023-04-25T11:10:43.547Z,20.75
2023-04-25T11:15:45.696Z,20.02
2023-04-25T11:20:49.526Z,19.54
2023-04-25T11:25:53.632Z,22.07
2023-04-25T11:30:56.670Z,25.16
2023-04-25T11:35:59.166Z,21.17
2023-04-25T11:41:02.119Z,22.25
2023-04-25T11:46:09.271Z,21.92
2023-04-25T11:51:11.762Z,20.80
2023-04-25T11:56:14.479Z,18.72
2023-04-25T12:01:36.608Z,17.65
2023-04-25T12:06:41.257Z,17.54
2023-04-25T12:11:48.633Z,17.92
2023-04-25T12:16:52.422Z,18.40
2023-04-25T12:21:58.472Z,17.27
2023-04-25T12:27:04.197Z,19.62
2023-04-25T12:32:06.986Z,21.76
2023-04-25T12:37:09.205Z,24.04
2023-04-25T12:42:14.429Z,25.07
2023-04-25T12:47:16.914Z,25.74
2023-04-25T12:52:19.070Z,23.24
2023-04-25T12:57:21.473Z,24.91
2023-04-25T13:02:23.759Z,25.81
2023-04-25T13:07:26.157Z,28.31
2023-04-25T13:12:28.397Z,26.96
2023-04-25T13:17:31.149Z,27.13
2023-04-25T13:22:33.416Z,25.30
2023-04-25T13:27:36.886Z,25.04
2023-04-25T13:32:39.696Z,25.54
2023-04-25T13:37:42.036Z,20.83
2023-04-25T13:42:46.391Z,25.12
2023-04-25T13:47:48.710Z,24.05
2023-04-25T13:52:51.065Z,25.02
2023-04-25T13:57:53.299Z,24.51
2023-04-25T14:02:55.587Z,24.75
2023-04-25T14:07:58.351Z,25.38
2023-04-25T14:13:06.623Z,25.44
2023-04-25T14:18:09.692Z,25.65
2023-04-25T14:23:11.962Z,24.91
2023-04-25T14:28:14.151Z,24.57
2023-04-25T14:33:16.498Z,23.72
2023-04-25T14:38:19.577Z,23.26
2023-04-25T14:43:21.840Z,22.58
2023-04-25T14:48:27.079Z,23.67
2023-04-25T14:53:29.483Z,22.72
2023-04-25T14:58:32.374Z,21.97
2023-04-25T15:03:35.026Z,19.72
2023-04-25T15:08:37.385Z,18.63
2023-04-25T15:13:41.329Z,17.42
2023-04-25T15:18:43.517Z,16.50
2023-04-25T15:23:45.831Z,18.17
2023-04-25T15:28:47.935Z,17.48
2023-04-25T15:33:50.366Z,19.05
2023-04-25T15:38:52.715Z,21.93
2023-04-25T15:43:55.006Z,20.95
2023-04-25T15:48:57.335Z,18.01
2023-04-25T15:53:59.601Z,18.00
2023-04-25T15:59:01.755Z,18.43
2023-04-25T16:04:04.164Z,16.32
2023-04-25T16:09:06.846Z,15.39
2023-04-25T16:14:09.104Z,14.74
2023-04-25T16:19:11.686Z,14.33
2023-04-25T16:24:13.929Z,13.82
2023-04-25T16:29:17.729Z,13.56
2023-04-25T16:34:20.361Z,13.82
2023-04-25T16:39:23.280Z,13.30
2023-04-25T16:44:25.533Z,12.90
2023-04-25T16:49:28.375Z,12.71
2023-04-25T16:54:30.580Z,12.63
2023-04-25T16:59:32.828Z,12.91
2023-04-25T17:04:35.143Z,12.97
2023-04-25T17:09:37.510Z,12.54
2023-04-25T17:14:40.090Z,12.69
2023-04-25T17:19:42.879Z,12.48
2023-04-25T17:24:45.091Z,12.24
2023-04-25T17:29:47.288Z,12.03
2023-04-25T17:34:49.492Z,11.94
2023-04-25T17:39:51.691Z,11.87
2023-04-25T17:44:55.638Z,11.51
2023-04-25T17:49:58.023Z,11.49
2023-04-25T17:55:00.380Z,11.46
2023-04-25T18:00:04.532Z,11.26
2023-04-25T18:05:11.568Z,11.11
2023-04-25T18:10:14.792Z,11.38
2023-04-25T18:15:18.575Z,11.21
2023-04-25T18:20:22.240Z,11.33
2023-04-25T18:25:24.413Z,11.08
2023-04-25T18:30:26.933Z,11.22
2023-04-25T18:35:29.194Z,10.93
2023-04-25T18:40:31.811Z,10.86
2023-04-25T18:45:34.048Z,10.87
2023-04-25T18:50:38.131Z,10.97
2023-04-25T18:55:41.648Z,10.72
2023-04-25T19:00:43.884Z,11.32
2023-04-25T19:05:46.080Z,10.79
2023-04-25T19:10:50.588Z,10.94
2023-04-25T19:15:52.833Z,10.66
2023-04-25T19:20:55.556Z,11.04
2023-04-25T19:25:57.760Z,10.62
2023-04-25T19:31:00.254Z,10.42
2023-04-25T19:36:02.488Z,10.30
2023-04-25T19:41:04.691Z,10.32
2023-04-25T19:46:06.994Z,10.04
2023-04-25T19:51:12.207Z,10.09
2023-04-25T19:56:16.009Z,10.05
2023-04-25T20:01:23.476Z,9.97
2023-04-25T20:06:29.396Z,9.64
2023-04-25T20:11:33.084Z,9.66
2023-04-25T20:16:35.623Z,9.44
2023-04-25T20:21:40.945Z,9.56
2023-04-25T20:26:43.066Z,9.43
2023-04-25T20:31:45.269Z,9.47
2023-04-25T20:36:51.514Z,9.41
2023-04-25T20:41:53.774Z,9.48
2023-04-25T20:46:56.474Z,9.34
2023-04-25T20:51:59.190Z,9.31
2023-04-25T20:57:02.613Z,9.32
2023-04-25T21:02:05.310Z,9.03
2023-04-25T21:07:07.565Z,9.10
2023-04-25T21:12:09.689Z,9.07
2023-04-25T21:17:12.078Z,9.07
2023-04-25T21:22:14.498Z,8.95
2023-04-25T21:27:19.936Z,8.80
2023-04-25T21:32:22.386Z,8.57
2023-04-25T21:37:24.577Z,8.68
2023-04-25T21:42:26.785Z,8.58
2023-04-25T21:47:29.541Z,8.47
2023-04-25T21:52:32.431Z,8.52
2023-04-25T21:57:34.732Z,8.51
2023-04-25T22:02:37.276Z,8.57
2023-04-25T22:07:40.091Z,8.35
2023-04-25T22:12:45.228Z,8.34
2023-04-25T22:17:47.557Z,8.36
2023-04-25T22:22:50.898Z,8.37
2023-04-25T22:27:53.090Z,8.38
2023-04-25T22:32:55.429Z,8.30
2023-04-25T22:37:57.849Z,8.35
2023-04-25T22:43:00.534Z,8.28
2023-04-25T22:48:02.759Z,8.11
2023-04-25T22:53:05.050Z,8.24
2023-04-25T22:58:10.287Z,8.09
2023-04-25T23:03:12.690Z,8.18
2023-04-25T23:08:17.983Z,8.24
2023-04-25T23:13:22.410Z,8.67
2023-04-25T23:18:24.785Z,8.80
2023-04-25T23:23:27.679Z,8.92
2023-04-25T23:28:29.901Z,8.93
2023-04-25T23:33:32.262Z,8.85
2023-04-25T23:38:34.625Z,8.80
2023-04-25T23:43:36.895Z,8.68
2023-04-25T23:48:39.139Z,8.63
2023-04-25T23:53:41.690Z,8.70
2023-04-25T23:58:43.970Z,8.77
